首页
METAR-TAF:

METAR-TAF

机场 :

雅温得-恩西马兰国际机场

雅温得, 喀麦隆

纬度: 03-50N, 经度: 011-31E, 海拔: 751米

当前天气观测

该预报发布于39分钟前的20:30 UTC
风速4节,风向西,在南转西南北转西北之间变化
温度 21°C
湿度 94%
气压 1016 hPa
能見度: 8000
散云层高于600英尺
少量云层高于2000英尺, 积雨云.
雷暴

METAR: FKYS 252030Z 28004KT 210V340 8000 TS SCT006 FEW020CB 21/20 Q1016 TEMPO 3000 TSRA

时间: 22:09 (21:09 UTC)

预报

该预报发布于4小时和9分钟前的17:00 UTC
预报有效从25日的 18点(UTC)到 26日的 18点(UTC)
风速4节,风向西南
能見度: 8000
散云层高于1600英尺
成为
从 25日的 20点(UTC)到 25日的 22点(UTC)
多云层高于600英尺
几率 40%
从 25日的 21点(UTC)到 25日的 23点(UTC)
能見度: 3000
多云层高于600英尺
少量云层高于2000英尺, 积雨云.
雷暴, 雨
成为
从 26日的 08点(UTC)到 26日的 10点(UTC)
多云层高于1600英尺
短暂存在
从 26日的 15点(UTC)到 26日的 19点(UTC)
多云层高于1300英尺
少量云层高于2000英尺, 积雨云.
雷暴,

TAF: FKYS 251700Z 2518/2618 23004KT 8000 SCT016 BECMG 2520/2522 BKN006 PROB40 2521/2523 3000 TSRA BKN006 FEW020CB BECMG 2608/2610 BKN016 TEMPO 2615/2619 TS BKN013 FEW020CB

超过4000个机场的气象观测和天气预报(METAR&TAF报告)。

可查询的气象台以黄色和红色小点在地图上表示。

将鼠标移到小点上方,可查看气象台名称。

然后点击查看天气观测和预报。

如需切换地图:点击带黑十字的绿色按钮放大地图;点击带横线的绿色按钮缩小地图;或者点击绿色箭头查看邻近地区的地图。


METAR-TAF: